Time,TemperatureF,DewpointF,PressureIn,WindDirection,WindDirectionDegrees,WindSpeedMPH,WindSpeedGustMPH,Humidity,HourlyPrecipIn,Conditions,Clouds,dailyrainin,SoftwareType,DateUTC
2013-10-05 00:14:00,67.0,67.0,30.05,WSW,244,8.0,17.0,99,0.63,,,1.11,,2013-10-05 04:14:00,
2013-10-05 00:24:00,65.0,64.0,30.06,NNE,19,5.0,13.0,97,1.19,,,1.74,,2013-10-05 04:24:00,
2013-10-05 00:44:00,65.0,64.0,30.04,East,100,2.0,6.0,98,1.19,,,2.11,,2013-10-05 04:44:00,
2013-10-05 00:53:00,64.0,63.0,30.03,East,85,1.0,5.0,98,1.12,,,2.14,,2013-10-05 04:53:00,
2013-10-05 01:13:00,64.0,63.0,30.03,ENE,78,2.0,3.0,98,1.01,,,2.14,,2013-10-05 05:13:00,
2013-10-05 01:22:00,64.0,63.0,30.03,ESE,107,1.0,3.0,98,0.36,,,2.14,,2013-10-05 05:22:00,
2013-10-05 01:43:00,64.0,63.0,30.02,SE,131,0.0,4.0,98,0.02,,,2.14,,2013-10-05 05:43:00,
2013-10-05 01:52:00,64.0,63.0,30.03,SE,131,0.0,0.0,98,0.00,,,2.14,,2013-10-05 05:52:00,
2013-10-05 02:12:00,63.0,62.0,30.03,SE,131,0.0,0.0,98,0.00,,,2.14,,2013-10-05 06:12:00,
2013-10-05 02:22:00,63.0,63.0,30.03,SE,131,0.0,0.0,99,0.00,,,2.14,,2013-10-05 06:22:00,
2013-10-05 02:43:00,63.0,62.0,30.03,SE,131,0.0,0.0,98,0.00,,,2.14,,2013-10-05 06:43:00,
2013-10-05 02:52:00,63.0,63.0,30.04,SE,131,0.0,0.0,99,0.00,,,2.14,,2013-10-05 06:52:00,
2013-10-05 03:12:00,63.0,63.0,30.03,SE,131,0.0,0.0,99,0.00,,,2.14,,2013-10-05 07:12:00,
2013-10-05 03:22:00,63.0,63.0,30.03,SE,131,0.0,0.0,99,0.00,,,2.14,,2013-10-05 07:22:00,
2013-10-05 03:42:00,62.0,61.0,30.03,SE,131,0.0,0.0,98,0.00,,,2.14,,2013-10-05 07:42:00,
2013-10-05 03:52:00,62.0,62.0,30.02,SE,131,0.0,0.0,99,0.00,,,2.14,,2013-10-05 07:52:00,
2013-10-05 04:12:00,62.0,62.0,30.02,SE,131,0.0,0.0,99,0.00,,,2.14,,2013-10-05 08:12:00,
2013-10-05 04:23:00,62.0,62.0,30.02,SE,131,0.0,0.0,99,0.00,,,2.14,,2013-10-05 08:23:00,
2013-10-05 04:42:00,62.0,62.0,30.02,SE,131,0.0,0.0,99,0.00,,,2.14,,2013-10-05 08:42:00,
2013-10-05 04:52:00,61.0,61.0,30.01,SE,131,0.0,1.0,99,0.00,,,2.14,,2013-10-05 08:52:00,
2013-10-05 05:12:00,61.0,61.0,30.01,SE,131,0.0,0.0,99,0.00,,,2.14,,2013-10-05 09:12:00,
2013-10-05 05:22:00,61.0,61.0,30.02,SE,131,0.0,0.0,99,0.00,,,2.14,,2013-10-05 09:22:00,
2013-10-05 05:43:00,61.0,61.0,30.02,SE,131,0.0,0.0,99,0.00,,,2.14,,2013-10-05 09:43:00,
2013-10-05 05:54:00,61.0,61.0,30.02,SE,131,0.0,0.0,99,0.00,,,2.14,,2013-10-05 09:54:00,
2013-10-05 06:12:00,61.0,61.0,30.01,SE,131,0.0,0.0,99,0.00,,,2.14,,2013-10-05 10:12:00,
2013-10-05 06:23:00,61.0,61.0,30.01,SE,131,0.0,0.0,99,0.00,,,2.14,,2013-10-05 10:23:00,
2013-10-05 06:43:00,61.0,61.0,30.01,SE,131,0.0,0.0,99,0.00,,,2.14,,2013-10-05 10:43:00,
2013-10-05 06:53:00,62.0,62.0,30.01,SE,131,0.0,0.0,99,0.00,,,2.14,,2013-10-05 10:53:00,
2013-10-05 07:12:00,62.0,62.0,30.02,SE,131,0.0,0.0,99,0.00,,,2.14,,2013-10-05 11:12:00,
2013-10-05 07:22:00,62.0,62.0,30.02,SE,131,0.0,0.0,99,0.00,,,2.14,,2013-10-05 11:22:00,
2013-10-05 07:43:00,62.0,62.0,30.02,SE,131,0.0,0.0,99,0.00,,,2.14,,2013-10-05 11:43:00,
2013-10-05 07:52:00,62.0,62.0,30.02,SE,131,0.0,0.0,99,0.00,,,2.14,,2013-10-05 11:52:00,
2013-10-05 08:12:00,62.0,62.0,30.01,SE,131,0.0,0.0,100,0.00,,,2.14,,2013-10-05 12:12:00,
2013-10-05 08:22:00,62.0,62.0,30.01,SE,131,0.0,0.0,99,0.00,,,2.14,,2013-10-05 12:22:00,
2013-10-05 08:42:00,63.0,63.0,30.00,SE,131,0.0,0.0,100,0.00,,,2.14,,2013-10-05 12:42:00,
2013-10-05 08:52:00,63.0,63.0,30.00,SE,131,0.0,0.0,100,0.00,,,2.14,,2013-10-05 12:52:00,
2013-10-05 09:12:00,63.0,63.0,30.00,SE,131,0.0,0.0,100,0.00,,,2.14,,2013-10-05 13:12:00,
2013-10-05 09:22:00,64.0,64.0,30.01,SE,131,0.0,0.0,100,0.00,,,2.14,,2013-10-05 13:22:00,
2013-10-05 09:42:00,65.0,65.0,29.99,SE,131,0.0,0.0,100,0.00,,,2.14,,2013-10-05 13:42:00,
2013-10-05 09:52:00,66.0,66.0,29.99,SE,131,0.0,0.0,100,0.00,,,2.14,,2013-10-05 13:52:00,
2013-10-05 10:12:00,66.0,66.0,30.00,South,188,0.0,2.0,100,0.00,,,2.14,,2013-10-05 14:12:00,
2013-10-05 10:22:00,66.0,66.0,30.01,South,188,0.0,0.0,100,0.01,,,2.15,,2013-10-05 14:22:00,
2013-10-05 10:42:00,66.0,66.0,30.01,SW,223,0.0,3.0,100,0.18,,,2.31,,2013-10-05 14:42:00,
2013-10-05 10:52:00,66.0,66.0,30.01,SW,223,0.0,0.0,100,0.30,,,2.44,,2013-10-05 14:52:00,
2013-10-05 11:12:00,67.0,67.0,30.00,SW,223,0.0,1.0,100,0.32,,,2.46,,2013-10-05 15:12:00,
2013-10-05 11:22:00,68.0,68.0,30.00,SW,223,0.0,2.0,100,0.31,,,2.47,,2013-10-05 15:22:00,
2013-10-05 11:44:00,68.0,68.0,30.01,SE,130,1.0,4.0,100,0.14,,,2.47,,2013-10-05 15:44:00,
2013-10-05 11:53:00,68.0,68.0,30.00,SW,236,0.0,1.0,100,0.03,,,2.47,,2013-10-05 15:53:00,
2013-10-05 12:13:00,68.0,68.0,30.00,SW,236,0.0,2.0,100,0.01,,,2.47,,2013-10-05 16:13:00,
2013-10-05 12:24:00,69.0,69.0,29.99,ESE,120,0.0,0.0,100,0.03,,,2.50,,2013-10-05 16:24:00,
2013-10-05 12:43:00,69.0,69.0,29.99,ESE,120,0.0,0.0,100,0.03,,,2.50,,2013-10-05 16:43:00,
2013-10-05 12:53:00,69.0,69.0,29.98,SSE,168,0.0,2.0,100,0.03,,,2.50,,2013-10-05 16:53:00,
2013-10-05 13:12:00,70.0,70.0,29.97,East,87,0.0,2.0,100,0.03,,,2.50,,2013-10-05 17:12:00,
2013-10-05 13:22:00,70.0,70.0,29.97,SSW,208,0.0,0.0,100,0.00,,,2.50,,2013-10-05 17:22:00,
2013-10-05 13:42:00,71.0,71.0,29.97,SE,132,0.0,1.0,100,0.00,,,2.50,,2013-10-05 17:42:00,
2013-10-05 13:52:00,70.0,70.0,29.96,ESE,116,0.0,2.0,100,0.00,,,2.50,,2013-10-05 17:52:00,
2013-10-05 14:12:00,71.0,71.0,29.96,SE,138,0.0,5.0,99,0.00,,,2.50,,2013-10-05 18:12:00,
2013-10-05 14:22:00,71.0,71.0,29.96,SSE,149,1.0,4.0,99,0.00,,,2.50,,2013-10-05 18:22:00,
2013-10-05 14:42:00,72.0,71.0,29.96,SSE,151,0.0,8.0,98,0.00,,,2.31,,2013-10-05 18:42:00,
2013-10-05 14:52:00,73.0,71.0,29.96,SE,132,0.0,6.0,95,0.00,,,2.31,,2013-10-05 18:52:00,
2013-10-05 15:11:00,73.0,71.0,29.95,ESE,116,0.0,2.0,94,0.00,,,2.31,,2013-10-05 19:11:00,
2013-10-05 15:22:00,73.0,71.0,29.94,ESE,111,0.0,1.0,94,0.00,,,2.31,,2013-10-05 19:22:00,
2013-10-05 15:42:00,73.0,71.0,29.94,South,178,0.0,2.0,93,0.00,,,2.25,,2013-10-05 19:42:00,
2013-10-05 15:52:00,72.0,70.0,29.93,SSW,209,0.0,2.0,93,0.00,,,2.25,,2013-10-05 19:52:00,
2013-10-05 16:11:00,72.0,70.0,29.93,SW,215,0.0,2.0,94,0.00,,,2.25,,2013-10-05 20:11:00,
2013-10-05 16:22:00,73.0,71.0,29.91,SW,219,0.0,7.0,92,0.00,,,2.25,,2013-10-05 20:22:00,
2013-10-05 16:42:00,74.0,71.0,29.91,SE,139,0.0,4.0,90,0.00,,,2.25,,2013-10-05 20:42:00,
2013-10-05 16:52:00,74.0,71.0,29.91,ESE,109,0.0,3.0,90,0.00,,,2.25,,2013-10-05 20:52:00,
2013-10-05 17:12:00,75.0,71.0,29.91,SSW,209,0.0,4.0,86,0.00,,,2.25,,2013-10-05 21:12:00,
2013-10-05 17:22:00,75.0,71.0,29.90,SW,215,0.0,1.0,87,0.00,,,2.25,,2013-10-05 21:22:00,
2013-10-05 17:44:00,75.0,71.0,29.90,WSW,248,0.0,6.0,87,0.00,,,2.22,,2013-10-05 21:44:00,
2013-10-05 17:54:00,75.0,71.0,29.89,East,99,0.0,5.0,87,0.00,,,2.22,,2013-10-05 21:54:00,
2013-10-05 18:13:00,75.0,71.0,29.88,ESE,108,0.0,1.0,88,0.00,,,2.22,,2013-10-05 22:13:00,
2013-10-05 18:24:00,74.0,71.0,29.88,ESE,109,0.0,3.0,89,0.00,,,2.22,,2013-10-05 22:24:00,
2013-10-05 18:42:00,74.0,71.0,29.88,ESE,117,0.0,2.0,90,0.00,,,2.22,,2013-10-05 22:42:00,
2013-10-05 18:53:00,73.0,70.0,29.88,SE,142,1.0,4.0,89,0.00,,,2.22,,2013-10-05 22:53:00,
2013-10-05 19:13:00,73.0,70.0,29.88,SE,136,2.0,6.0,90,0.00,,,2.22,,2013-10-05 23:13:00,
2013-10-05 19:22:00,73.0,70.0,29.88,SSE,148,0.0,7.0,91,0.00,,,2.22,,2013-10-05 23:22:00,
2013-10-05 19:43:00,72.0,69.0,29.88,ESE,121,0.0,4.0,91,0.00,,,2.22,,2013-10-05 23:43:00,
2013-10-05 19:53:00,72.0,70.0,29.88,SE,128,0.0,2.0,93,0.00,,,2.22,,2013-10-05 23:53:00,
2013-10-05 20:12:00,71.0,69.0,29.88,SE,126,0.0,2.0,93,0.00,,,2.22,,2013-10-06 00:12:00,
2013-10-05 20:23:00,71.0,69.0,29.88,SE,126,0.0,2.0,94,0.00,,,2.22,,2013-10-06 00:23:00,
2013-10-05 20:43:00,71.0,69.0,29.88,SE,126,0.0,0.0,94,0.00,,,2.22,,2013-10-06 00:43:00,
2013-10-05 20:52:00,70.0,68.0,29.88,SE,126,0.0,3.0,95,0.00,,,2.22,,2013-10-06 00:52:00,
2013-10-05 21:11:00,70.0,68.0,29.88,SE,130,0.0,0.0,95,0.01,,,2.23,,2013-10-06 01:11:00,
2013-10-05 21:22:00,70.0,69.0,29.87,ESE,111,0.0,3.0,96,0.02,,,2.24,,2013-10-06 01:22:00,
2013-10-05 21:42:00,70.0,69.0,29.87,ESE,113,0.0,3.0,97,0.02,,,2.21,,2013-10-06 01:42:00,
2013-10-05 21:52:00,70.0,69.0,29.87,WSW,244,0.0,1.0,97,0.02,,,2.21,,2013-10-06 01:52:00,
2013-10-05 22:12:00,69.0,68.0,29.86,WSW,244,0.0,1.0,98,0.01,,,2.21,,2013-10-06 02:12:00,
2013-10-05 22:22:00,69.0,68.0,29.86,WSW,244,0.0,0.0,98,0.00,,,2.21,,2013-10-06 02:22:00,
2013-10-05 22:42:00,69.0,68.0,29.86,SSE,161,0.0,5.0,98,0.00,,,2.06,,2013-10-06 02:42:00,
2013-10-05 22:52:00,69.0,68.0,29.86,WSW,244,0.0,8.0,98,0.00,,,2.06,,2013-10-06 02:52:00,
2013-10-05 23:12:00,69.0,68.0,29.87,South,172,0.0,7.0,98,0.00,,,2.06,,2013-10-06 03:12:00,
2013-10-05 23:22:00,69.0,68.0,29.86,WSW,237,0.0,5.0,98,0.00,,,2.06,,2013-10-06 03:22:00,
2013-10-05 23:44:00,68.0,67.0,29.86,SW,229,0.0,4.0,98,0.00,,,1.68,,2013-10-06 03:44:00,
2013-10-05 23:54:00,68.0,67.0,29.85,SW,224,0.0,4.0,98,0.00,,,1.68,,2013-10-06 03:54:00,